JBU7532 KSAN-KLAX
Flight info
| Callsign | JBU7532 |
|---|---|
| Flight time | 0h 22m |
| Altitude | 10000 |
| Route | CWARD2 SLI |
| Aircraft | A20N/M-SDE2E3FGHIRWXY/LB1 |
Departure
| Time | 2026-04-20 22:48 |
|---|---|
| Airport | San Diego International Airport (KSAN) |
Arrival
| Time | 2026-04-20 23:11 |
|---|---|
| Airport | Los Angeles International Airport (KLAX) |
| Time | Latitude | Longitude | Altitude | Speed | Heading |
|---|---|---|---|---|---|
| 2026-04-20 22:31 | 32.73372 | -117.19783 | 15 ft | 0 kts | 268° |
| 2026-04-20 22:41 | 32.73373 | -117.19761 | 27 ft | 1 kts | 268° |
| 2026-04-20 22:42 | 32.73373 | -117.19758 | 27 ft | 3 kts | 268° |
| 2026-04-20 22:42 | 32.73376 | -117.19732 | 29 ft | 3 kts | 252° |
| 2026-04-20 22:42 | 32.73385 | -117.19709 | 29 ft | 3 kts | 224° |
| 2026-04-20 22:42 | 32.73404 | -117.19696 | 28 ft | 3 kts | 181° |
| 2026-04-20 22:43 | 32.73424 | -117.19704 | 29 ft | 3 kts | 111° |
| 2026-04-20 22:43 | 32.73424 | -117.19695 | 27 ft | 3 kts | 98° |
| 2026-04-20 22:43 | 32.73418 | -117.19651 | 30 ft | 2 kts | 101° |
| 2026-04-20 22:43 | 32.73426 | -117.19694 | 28 ft | 10 kts | 102° |
| 2026-04-20 22:44 | 32.73430 | -117.19713 | 28 ft | 0 kts | 102° |
| 2026-04-20 22:44 | 32.73411 | -117.19606 | 26 ft | 35 kts | 105° |
| 2026-04-20 22:44 | 32.73361 | -117.19427 | 31 ft | 0 kts | 103° |
| 2026-04-20 22:45 | 32.73363 | -117.19436 | 32 ft | 5 kts | 103° |
| 2026-04-20 22:45 | 32.73372 | -117.19482 | 27 ft | 0 kts | 103° |
| 2026-04-20 22:45 | 32.73343 | -117.19342 | 25 ft | 27 kts | 105° |
| 2026-04-20 22:45 | 32.73282 | -117.19101 | 27 ft | 33 kts | 107° |
| 2026-04-20 22:46 | 32.73222 | -117.18824 | 28 ft | 36 kts | 108° |
| 2026-04-20 22:46 | 32.73146 | -117.18523 | 28 ft | 41 kts | 104° |
| 2026-04-20 22:46 | 32.73065 | -117.18197 | 24 ft | 45 kts | 110° |
| 2026-04-20 22:46 | 32.72961 | -117.17836 | 18 ft | 44 kts | 117° |
| 2026-04-20 22:47 | 32.73026 | -117.17635 | 25 ft | 4 kts | 18° |
| 2026-04-20 22:47 | 32.73007 | -117.17642 | 23 ft | 9 kts | 18° |
| 2026-04-20 22:47 | 32.73022 | -117.17678 | 20 ft | 42 kts | 326° |
| 2026-04-20 22:47 | 32.73190 | -117.18257 | 26 ft | 118 kts | 283° |
| 2026-04-20 22:48 | 32.73480 | -117.19467 | 53 ft | 184 kts | 286° |
| 2026-04-20 22:48 | 32.73857 | -117.20877 | 512 ft | 205 kts | 292° |
| 2026-04-20 22:48 | 32.74609 | -117.22487 | 1069 ft | 242 kts | 302° |
| 2026-04-20 22:48 | 32.75606 | -117.24196 | 1575 ft | 255 kts | 304° |
| 2026-04-20 22:49 | 32.76621 | -117.25893 | 2107 ft | 260 kts | 304° |
| 2026-04-20 22:49 | 32.77650 | -117.27668 | 2686 ft | 264 kts | 303° |
| 2026-04-20 22:49 | 32.78675 | -117.29500 | 3291 ft | 268 kts | 302° |
| 2026-04-20 22:49 | 32.79703 | -117.31377 | 3888 ft | 272 kts | 302° |
| 2026-04-20 22:50 | 32.80847 | -117.33194 | 4479 ft | 276 kts | 306° |
| 2026-04-20 22:50 | 32.82028 | -117.35017 | 5074 ft | 280 kts | 306° |
| 2026-04-20 22:50 | 32.83217 | -117.36860 | 5738 ft | 282 kts | 306° |
| 2026-04-20 22:50 | 32.84420 | -117.38729 | 6604 ft | 287 kts | 306° |
| 2026-04-20 22:51 | 32.85621 | -117.40594 | 7421 ft | 289 kts | 306° |
| 2026-04-20 22:51 | 32.86848 | -117.42502 | 8273 ft | 292 kts | 306° |
| 2026-04-20 22:51 | 32.88086 | -117.44427 | 9123 ft | 296 kts | 306° |
| 2026-04-20 22:51 | 32.89343 | -117.46382 | 9348 ft | 297 kts | 306° |
| 2026-04-20 22:52 | 32.90602 | -117.48341 | 9527 ft | 298 kts | 306° |
| 2026-04-20 22:52 | 32.91862 | -117.50302 | 9681 ft | 298 kts | 306° |
| 2026-04-20 22:52 | 32.93120 | -117.52261 | 9812 ft | 299 kts | 306° |
| 2026-04-20 22:52 | 32.94384 | -117.54229 | 9933 ft | 300 kts | 306° |
| 2026-04-20 22:53 | 32.95653 | -117.56206 | 9986 ft | 300 kts | 306° |
| 2026-04-20 22:53 | 32.96918 | -117.58180 | 9986 ft | 300 kts | 306° |
| 2026-04-20 22:53 | 32.98190 | -117.60166 | 9989 ft | 322 kts | 306° |
| 2026-04-20 22:53 | 32.99641 | -117.62439 | 9986 ft | 363 kts | 306° |
| 2026-04-20 22:54 | 33.01201 | -117.64876 | 9978 ft | 373 kts | 306° |
| 2026-04-20 22:54 | 33.02780 | -117.67340 | 9980 ft | 374 kts | 306° |
| 2026-04-20 22:54 | 33.04356 | -117.69800 | 9979 ft | 375 kts | 306° |
| 2026-04-20 22:54 | 33.05969 | -117.72249 | 9977 ft | 375 kts | 310° |
| 2026-04-20 22:55 | 33.07825 | -117.74441 | 9981 ft | 377 kts | 318° |
| 2026-04-20 22:55 | 33.09827 | -117.76451 | 9978 ft | 377 kts | 319° |
| 2026-04-20 22:55 | 33.11824 | -117.78473 | 9977 ft | 377 kts | 318° |
| 2026-04-20 22:55 | 33.13817 | -117.80501 | 9974 ft | 377 kts | 318° |
| 2026-04-20 22:56 | 33.15789 | -117.82511 | 9975 ft | 377 kts | 318° |
| 2026-04-20 22:56 | 33.17811 | -117.84499 | 9976 ft | 378 kts | 323° |
| 2026-04-20 22:56 | 33.20092 | -117.86050 | 9978 ft | 379 kts | 335° |
| 2026-04-20 22:56 | 33.22603 | -117.87008 | 9976 ft | 380 kts | 347° |
| 2026-04-20 22:57 | 33.25193 | -117.87635 | 9976 ft | 376 kts | 348° |
| 2026-04-20 22:57 | 33.27683 | -117.88247 | 9972 ft | 354 kts | 348° |
| 2026-04-20 22:57 | 33.30020 | -117.88827 | 9976 ft | 337 kts | 348° |
| 2026-04-20 22:57 | 33.32336 | -117.89405 | 9976 ft | 342 kts | 348° |
| 2026-04-20 22:58 | 33.34663 | -117.89986 | 9977 ft | 340 kts | 348° |
| 2026-04-20 22:58 | 33.36984 | -117.90566 | 9976 ft | 341 kts | 348° |
| 2026-04-20 22:58 | 33.39284 | -117.91228 | 9975 ft | 340 kts | 342° |
| 2026-04-20 22:58 | 33.41551 | -117.92063 | 9974 ft | 341 kts | 342° |
| 2026-04-20 22:59 | 33.43818 | -117.92890 | 9975 ft | 341 kts | 342° |
| 2026-04-20 22:59 | 33.46085 | -117.93713 | 9973 ft | 341 kts | 342° |
| 2026-04-20 22:59 | 33.48329 | -117.94527 | 9972 ft | 341 kts | 342° |
| 2026-04-20 22:59 | 33.50631 | -117.95368 | 9971 ft | 341 kts | 342° |
| 2026-04-20 23:00 | 33.52869 | -117.96189 | 9970 ft | 341 kts | 342° |
| 2026-04-20 23:00 | 33.55172 | -117.97033 | 9968 ft | 341 kts | 342° |
| 2026-04-20 23:00 | 33.57405 | -117.97852 | 9971 ft | 341 kts | 342° |
| 2026-04-20 23:00 | 33.59682 | -117.98686 | 9968 ft | 341 kts | 342° |
| 2026-04-20 23:01 | 33.61954 | -117.99517 | 9968 ft | 342 kts | 342° |
| 2026-04-20 23:01 | 33.64225 | -118.00346 | 9971 ft | 341 kts | 342° |
| 2026-04-20 23:01 | 33.66504 | -118.01178 | 9971 ft | 342 kts | 342° |
| 2026-04-20 23:01 | 33.68774 | -118.02005 | 9944 ft | 342 kts | 342° |
| 2026-04-20 23:02 | 33.71049 | -118.02833 | 9941 ft | 342 kts | 342° |
| 2026-04-20 23:02 | 33.73363 | -118.03676 | 9939 ft | 342 kts | 342° |
| 2026-04-20 23:02 | 33.75608 | -118.04495 | 9944 ft | 342 kts | 342° |
| 2026-04-20 23:02 | 33.77884 | -118.05326 | 9942 ft | 342 kts | 342° |
| 2026-04-20 23:03 | 33.80160 | -118.06155 | 9939 ft | 342 kts | 342° |
| 2026-04-20 23:03 | 33.82444 | -118.06987 | 9743 ft | 343 kts | 342° |
| 2026-04-20 23:03 | 33.84736 | -118.07766 | 9199 ft | 343 kts | 349° |
| 2026-04-20 23:03 | 33.86683 | -118.07847 | 8605 ft | 345 kts | 7° |
| 2026-04-20 23:04 | 33.89048 | -118.07356 | 7865 ft | 347 kts | 11° |
| 2026-04-20 23:04 | 33.91432 | -118.06838 | 7139 ft | 348 kts | 11° |
| 2026-04-20 23:04 | 33.93010 | -118.06511 | 6672 ft | 349 kts | 9° |
| 2026-04-20 23:04 | 33.96234 | -118.06847 | 5672 ft | 352 kts | 341° |
| 2026-04-20 23:05 | 33.97691 | -118.07694 | 5183 ft | 351 kts | 327° |
| 2026-04-20 23:05 | 33.99428 | -118.09675 | 4434 ft | 338 kts | 304° |
| 2026-04-20 23:05 | 34.00415 | -118.12030 | 3988 ft | 320 kts | 291° |
| 2026-04-20 23:05 | 34.01205 | -118.14265 | 3789 ft | 300 kts | 291° |
| 2026-04-20 23:06 | 34.01985 | -118.16465 | 3644 ft | 278 kts | 291° |
| 2026-04-20 23:06 | 34.02718 | -118.18531 | 3576 ft | 260 kts | 291° |
| 2026-04-20 23:06 | 34.03217 | -118.20666 | 3367 ft | 261 kts | 269° |
| 2026-04-20 23:06 | 34.02832 | -118.22659 | 3088 ft | 235 kts | 236° |
| 2026-04-20 23:07 | 34.01859 | -118.24085 | 2905 ft | 215 kts | 227° |
| 2026-04-20 23:07 | 34.00893 | -118.25436 | 2430 ft | 214 kts | 227° |
| 2026-04-20 23:07 | 33.99944 | -118.26745 | 2019 ft | 198 kts | 227° |
| 2026-04-20 23:07 | 33.99079 | -118.27931 | 1661 ft | 175 kts | 227° |
| 2026-04-20 23:08 | 33.98372 | -118.28925 | 1604 ft | 148 kts | 229° |
| 2026-04-20 23:08 | 33.97655 | -118.29966 | 1482 ft | 169 kts | 230° |
| 2026-04-20 23:08 | 33.96904 | -118.31084 | 1311 ft | 180 kts | 232° |
| 2026-04-20 23:08 | 33.96250 | -118.32349 | 977 ft | 168 kts | 245° |
| 2026-04-20 23:09 | 33.95866 | -118.33615 | 819 ft | 160 kts | 256° |
| 2026-04-20 23:09 | 33.95729 | -118.34944 | 682 ft | 160 kts | 264° |
| 2026-04-20 23:09 | 33.95605 | -118.36295 | 553 ft | 165 kts | 262° |
| 2026-04-20 23:09 | 33.95469 | -118.37617 | 382 ft | 155 kts | 262° |
| 2026-04-20 23:10 | 33.95333 | -118.38922 | 255 ft | 158 kts | 264° |
| 2026-04-20 23:10 | 33.95198 | -118.40225 | 179 ft | 145 kts | 263° |
| 2026-04-20 23:10 | 33.95093 | -118.41295 | 124 ft | 109 kts | 263° |
| 2026-04-20 23:10 | 33.95030 | -118.41965 | 125 ft | 60 kts | 263° |
| 2026-04-20 23:11 | 33.94996 | -118.42274 | 125 ft | 36 kts | 262° |
| 2026-04-20 23:11 | 33.94899 | -118.42609 | 123 ft | 42 kts | 233° |
| 2026-04-20 23:11 | 33.94675 | -118.42779 | 124 ft | 32 kts | 184° |
| 2026-04-20 23:11 | 33.94572 | -118.42769 | 123 ft | 10 kts | 174° |
| 2026-04-20 23:12 | 33.94421 | -118.42751 | 124 ft | 31 kts | 170° |